Time;durP1;ratioP1;P1;durP2;ratioP2;P2;SDS_P1;SDS_P2;PMS_P1;PMS_P2;Temp;Humidity;BMP_temperature;BMP_pressure;BME280_temperature;BME280_humidity;BME280_pressure;Samples;Min_cycle;Max_cycle;Signal;HPM_P1;HPM_P2
2021/10/26 00:02:24;;;;;;;;;;;11.80;97.80;;;;;;4330533;33;45139;-81
2021/10/26 00:04:51;;;;;;;;;;;11.80;97.80;;;;;;4330846;33;43112;-81
2021/10/26 00:07:18;;;;;;;;;;;11.80;97.70;;;;;;4317470;33;43188;-81
2021/10/26 00:09:46;;;;;;;;;;;11.80;97.80;;;;;;4330727;33;44264;-81
2021/10/26 00:12:13;;;;;;;;;;;11.80;97.70;;;;;;4330790;33;44106;-81
2021/10/26 00:14:40;;;;;;;;;;;11.80;97.80;;;;;;4330248;33;43522;-81
2021/10/26 00:17:08;;;;;;;;;;;11.80;97.80;;;;;;4317437;33;42581;-82
2021/10/26 00:19:35;;;;;;;;;;;11.80;97.80;;;;;;4317457;33;43471;-81
2021/10/26 00:22:02;;;;;;;;;;;11.80;97.80;;;;;;4330663;33;44165;-82
2021/10/26 00:24:29;;;;;;;;;;;11.80;97.90;;;;;;4330297;33;44022;-82
2021/10/26 00:26:56;;;;;;;;;;;11.80;97.90;;;;;;4330419;33;42104;-81
2021/10/26 00:29:23;;;;;;;;;;;11.80;97.90;;;;;;4330236;33;44115;-80
2021/10/26 00:31:51;;;;;;;;;;;11.80;97.90;;;;;;4330076;33;43700;-82
2021/10/26 00:34:18;;;;;;;;;;;11.80;97.90;;;;;;4317122;33;43479;-81
2021/10/26 00:36:45;;;;;;;;;;;11.80;97.90;;;;;;4317105;33;43029;-81
2021/10/26 00:39:12;;;;;;;;;;;11.80;97.90;;;;;;4332681;33;43489;-82
2021/10/26 00:41:40;;;;;;;;;;;11.80;97.90;;;;;;4320573;33;42628;-81
2021/10/26 00:44:07;;;;;;;;;;;11.80;98.00;;;;;;4333623;33;43283;-82
2021/10/26 00:46:36;;;;;;;;;;;11.80;97.90;;;;;;4333046;33;43592;-82
2021/10/26 00:49:04;;;;;;;;;;;11.80;97.90;;;;;;4333102;33;44271;-81
2021/10/26 00:51:32;;;;;;;;;;;11.80;97.90;;;;;;4333250;33;45693;-80
2021/10/26 00:53:59;;;;;;;;;;;11.80;98.00;;;;;;4333231;33;42674;-81
2021/10/26 00:56:27;;;;;;;;;;;11.80;98.00;;;;;;4332912;33;43940;-81
2021/10/26 00:58:56;;;;;;;;;;;11.80;98.00;;;;;;4320317;33;43106;-82
2021/10/26 01:01:23;;;;;;;;;;;11.80;98.00;;;;;;4333322;33;42673;-81
2021/10/26 01:03:50;;;;;;;;;;;11.80;98.00;;;;;;4319619;33;43853;-81
2021/10/26 01:06:17;;;;;;;;;;;11.80;98.00;;;;;;4319604;33;42592;-82
2021/10/26 01:08:47;;;;;;;;;;;11.80;98.10;;;;;;4333278;33;43944;-81
2021/10/26 01:11:15;;;;;;;;;;;11.80;98.00;;;;;;4333039;33;43788;-82
2021/10/26 01:13:43;;;;;;;;;;;11.80;98.00;;;;;;4333093;33;42590;-81
2021/10/26 01:16:10;;;;;;;;;;;11.90;98.00;;;;;;4333059;33;43735;-81
2021/10/26 01:18:37;;;;;;;;;;;11.90;98.00;;;;;;4319482;33;43196;-81
2021/10/26 01:21:05;;;;;;;;;;;11.90;98.00;;;;;;4319543;33;43906;-81
2021/10/26 01:23:32;;;;;;;;;;;11.90;98.00;;;;;;4319756;33;43881;-81
2021/10/26 01:26:00;;;;;;;;;;;11.90;98.00;;;;;;4332844;33;43696;-82
2021/10/26 01:28:27;;;;;;;;;;;11.90;98.00;;;;;;4332594;33;42133;-82
2021/10/26 01:30:55;;;;;;;;;;;11.90;98.00;;;;;;4332357;33;44170;-82
2021/10/26 01:33:23;;;;;;;;;;;11.90;98.00;;;;;;4332559;33;44207;-82
2021/10/26 01:35:50;;;;;;;;;;;11.90;98.00;;;;;;4319434;33;43680;-82
2021/10/26 01:38:17;;;;;;;;;;;11.90;98.00;;;;;;4332295;33;44073;-82
2021/10/26 01:40:45;;;;;;;;;;;11.90;98.00;;;;;;4332997;33;44195;-82
2021/10/26 01:43:12;;;;;;;;;;;11.90;98.00;;;;;;4319285;33;43486;-82
2021/10/26 01:45:39;;;;;;;;;;;11.90;98.10;;;;;;4332382;33;42621;-82
2021/10/26 01:48:07;;;;;;;;;;;11.90;98.10;;;;;;4319169;33;43825;-83
2021/10/26 01:50:34;;;;;;;;;;;11.90;98.10;;;;;;4332051;33;43780;-82
2021/10/26 01:53:01;;;;;;;;;;;11.90;98.10;;;;;;4332382;33;43237;-82
2021/10/26 01:55:29;;;;;;;;;;;11.90;98.10;;;;;;4332538;33;42281;-83
2021/10/26 01:57:56;;;;;;;;;;;12.00;98.10;;;;;;4332175;33;42689;-82
2021/10/26 02:00:23;;;;;;;;;;;11.90;98.10;;;;;;4332503;33;44183;-82
2021/10/26 02:02:51;;;;;;;;;;;11.90;98.10;;;;;;4331991;33;43884;-83
2021/10/26 02:05:18;;;;;;;;;;;11.90;98.10;;;;;;4332026;33;43406;-84
2021/10/26 02:07:47;;;;;;;;;;;11.90;98.10;;;;;;4332493;33;44203;-83
2021/10/26 02:10:15;;;;;;;;;;;11.90;98.10;;;;;;4318929;33;43208;-83
2021/10/26 02:12:43;;;;;;;;;;;11.90;98.10;;;;;;4319065;33;44315;-83
2021/10/26 02:15:10;;;;;;;;;;;11.90;98.10;;;;;;4318727;33;43890;-83
2021/10/26 02:17:37;;;;;;;;;;;11.90;98.10;;;;;;4332052;33;43014;-83
2021/10/26 02:20:04;;;;;;;;;;;11.90;98.20;;;;;;4332434;33;43279;-83
2021/10/26 02:22:32;;;;;;;;;;;11.90;98.10;;;;;;4332328;33;43307;-83
2021/10/26 02:24:59;;;;;;;;;;;11.90;98.10;;;;;;4332162;33;43926;-83
2021/10/26 02:27:26;;;;;;;;;;;11.90;98.10;;;;;;4331944;33;43597;-83
2021/10/26 02:29:53;;;;;;;;;;;11.90;98.10;;;;;;4331696;33;43173;-83
2021/10/26 02:32:20;;;;;;;;;;;11.90;98.10;;;;;;4331773;33;42608;-82
2021/10/26 02:34:47;;;;;;;;;;;11.90;98.10;;;;;;4331999;33;43844;-83
2021/10/26 02:37:15;;;;;;;;;;;11.90;98.10;;;;;;4318452;33;43934;-83
2021/10/26 02:39:42;;;;;;;;;;;11.90;98.10;;;;;;4318484;33;42684;-83
2021/10/26 02:42:09;;;;;;;;;;;11.90;98.10;;;;;;4331980;33;43192;-84
2021/10/26 02:44:36;;;;;;;;;;;11.90;98.10;;;;;;4318371;33;43191;-83
2021/10/26 02:47:03;;;;;;;;;;;11.90;98.10;;;;;;4331416;33;43714;-83
2021/10/26 02:49:30;;;;;;;;;;;11.90;98.10;;;;;;4331785;33;43294;-84
2021/10/26 02:51:57;;;;;;;;;;;11.80;98.10;;;;;;4331632;33;44097;-83
2021/10/26 02:54:24;;;;;;;;;;;11.90;98.10;;;;;;4331612;33;42690;-83
2021/10/26 02:56:51;;;;;;;;;;;11.80;98.10;;;;;;4331370;33;42694;-83
2021/10/26 02:59:19;;;;;;;;;;;11.80;98.10;;;;;;4331487;33;42848;-83
2021/10/26 03:01:46;;;;;;;;;;;11.80;98.10;;;;;;4330994;33;42765;-83
2021/10/26 03:04:14;;;;;;;;;;;11.80;98.20;;;;;;4331657;33;44220;-83
2021/10/26 03:06:43;;;;;;;;;;;11.80;98.20;;;;;;4331547;33;43478;-83
2021/10/26 03:09:11;;;;;;;;;;;11.80;98.20;;;;;;4331096;33;44239;-83
2021/10/26 03:11:38;;;;;;;;;;;11.80;98.20;;;;;;4331060;33;43515;-83
2021/10/26 03:14:06;;;;;;;;;;;11.80;98.20;;;;;;4331173;33;42135;-83
2021/10/26 03:16:33;;;;;;;;;;;11.70;98.20;;;;;;4317906;33;41906;-83
2021/10/26 03:19:04;;;;;;;;;;;11.70;98.20;;;;;;4331358;33;43470;-84
2021/10/26 03:21:35;;;;;;;;;;;11.70;98.30;;;;;;4331025;33;42218;-83
2021/10/26 03:24:03;;;;;;;;;;;11.70;98.30;;;;;;4318264;33;44981;-84
2021/10/26 03:26:30;;;;;;;;;;;11.70;98.30;;;;;;4317822;33;43383;-84
2021/10/26 03:28:57;;;;;;;;;;;11.70;98.30;;;;;;4330655;33;45215;-83
2021/10/26 03:31:24;;;;;;;;;;;11.70;98.30;;;;;;4317961;33;43835;-83
2021/10/26 03:33:52;;;;;;;;;;;11.70;98.30;;;;;;4317998;33;44228;-83
2021/10/26 03:36:19;;;;;;;;;;;11.70;98.30;;;;;;4330750;33;43260;-83
2021/10/26 03:38:47;;;;;;;;;;;11.70;98.30;;;;;;4317547;33;43190;-83
2021/10/26 03:41:14;;;;;;;;;;;11.70;98.30;;;;;;4330645;33;43711;-82
2021/10/26 03:43:41;;;;;;;;;;;11.70;98.30;;;;;;4330606;33;42204;-83
2021/10/26 03:46:09;;;;;;;;;;;11.70;98.30;;;;;;4331164;33;43202;-83
2021/10/26 03:48:36;;;;;;;;;;;11.70;98.30;;;;;;4331066;33;43199;-83
2021/10/26 03:51:03;;;;;;;;;;;11.70;98.30;;;;;;4330513;33;43087;-83
2021/10/26 03:53:33;;;;;;;;;;;11.70;98.30;;;;;;4330949;33;44173;-83
2021/10/26 03:56:00;;;;;;;;;;;11.70;98.30;;;;;;4330501;33;43363;-83
2021/10/26 03:58:28;;;;;;;;;;;11.70;98.30;;;;;;4330401;33;43492;-84
2021/10/26 04:00:55;;;;;;;;;;;11.70;98.30;;;;;;4330828;33;44336;-83
2021/10/26 04:03:22;;;;;;;;;;;11.70;98.30;;;;;;4317139;33;43870;-84
2021/10/26 04:06:05;;;;;;;;;;;11.60;98.20;;;;;;4317472;33;42758;-84
2021/10/26 04:11:03;;;;;;;;;;;11.60;98.30;;;;;;4330330;33;43861;-84
2021/10/26 04:13:31;;;;;;;;;;;11.70;98.30;;;;;;4330346;33;44177;-83
2021/10/26 04:15:58;;;;;;;;;;;11.60;98.30;;;;;;4317704;33;43881;-83
2021/10/26 04:18:25;;;;;;;;;;;11.70;98.30;;;;;;4330343;33;44236;-83
2021/10/26 04:20:52;;;;;;;;;;;11.60;98.30;;;;;;4330799;33;44207;-85
2021/10/26 04:23:20;;;;;;;;;;;11.60;98.30;;;;;;4330570;33;43381;-84
2021/10/26 04:25:47;;;;;;;;;;;11.60;98.30;;;;;;4330743;33;43530;-82
2021/10/26 04:28:14;;;;;;;;;;;11.70;98.30;;;;;;4330588;33;44216;-83
2021/10/26 04:30:42;;;;;;;;;;;11.60;98.30;;;;;;4330948;33;43475;-83
2021/10/26 04:33:11;;;;;;;;;;;11.60;98.30;;;;;;4330477;33;45838;-84
2021/10/26 04:35:38;;;;;;;;;;;11.60;98.70;;;;;;4317122;33;42934;-83
2021/10/26 04:38:06;;;;;;;;;;;11.60;98.40;;;;;;4330439;33;45215;-84
2021/10/26 04:40:33;;;;;;;;;;;11.60;98.30;;;;;;4330061;33;42696;-83
2021/10/26 04:43:01;;;;;;;;;;;11.60;98.30;;;;;;4317290;33;43987;-83
2021/10/26 04:45:31;;;;;;;;;;;11.60;98.30;;;;;;4330116;33;45842;-83
2021/10/26 04:47:58;;;;;;;;;;;11.60;98.30;;;;;;4329994;33;44710;-83
2021/10/26 04:50:30;;;;;;;;;;;11.60;98.30;;;;;;4317328;33;43883;-83
2021/10/26 04:52:57;;;;;;;;;;;11.60;98.30;;;;;;4330516;33;42983;-82
2021/10/26 04:55:24;;;;;;;;;;;11.60;98.30;;;;;;4330463;33;43799;-82
2021/10/26 04:57:51;;;;;;;;;;;11.70;98.30;;;;;;4329917;33;44221;-82
2021/10/26 05:00:19;;;;;;;;;;;11.60;98.20;;;;;;4330067;33;44168;-82
2021/10/26 05:02:46;;;;;;;;;;;11.70;98.20;;;;;;4313972;33;43176;-82
2021/10/26 05:05:13;;;;;;;;;;;11.70;98.20;;;;;;4314768;33;43021;-81
2021/10/26 05:07:43;;;;;;;;;;;11.70;98.10;;;;;;4315654;33;42717;-82
2021/10/26 05:10:10;;;;;;;;;;;11.70;98.10;;;;;;4315632;33;44797;-82
2021/10/26 05:12:37;;;;;;;;;;;11.70;98.10;;;;;;4315270;33;42900;-82
2021/10/26 05:15:05;;;;;;;;;;;11.70;98.10;;;;;;4314745;33;43653;-82
2021/10/26 05:17:32;;;;;;;;;;;11.70;98.10;;;;;;4314465;33;43781;-82
2021/10/26 05:20:00;;;;;;;;;;;11.70;98.10;;;;;;4315270;33;43242;-83
2021/10/26 05:22:29;;;;;;;;;;;11.70;98.10;;;;;;4314514;33;44944;-83
2021/10/26 05:24:56;;;;;;;;;;;11.60;98.00;;;;;;4314980;33;43777;-82
2021/10/26 05:27:24;;;;;;;;;;;11.60;98.00;;;;;;4318037;33;43859;-82
2021/10/26 05:29:51;;;;;;;;;;;11.60;98.10;;;;;;4316904;33;43201;-83
2021/10/26 05:32:18;;;;;;;;;;;11.60;98.10;;;;;;4318141;33;43031;-82
2021/10/26 05:34:46;;;;;;;;;;;11.60;98.10;;;;;;4318068;33;42931;-81
2021/10/26 05:37:13;;;;;;;;;;;11.60;98.10;;;;;;4317698;33;43450;-82
2021/10/26 05:39:41;;;;;;;;;;;11.60;98.10;;;;;;4317732;33;44066;-82
2021/10/26 05:42:08;;;;;;;;;;;11.60;98.20;;;;;;4317537;33;44322;-83
2021/10/26 05:44:35;;;;;;;;;;;11.50;98.10;;;;;;4316642;33;44042;-82
2021/10/26 05:47:03;;;;;;;;;;;11.50;98.20;;;;;;4317918;33;42594;-83
2021/10/26 05:49:30;;;;;;;;;;;11.50;98.20;;;;;;4316982;33;43868;-83
2021/10/26 05:51:58;;;;;;;;;;;11.50;98.20;;;;;;4316889;33;42783;-83
2021/10/26 05:54:25;;;;;;;;;;;11.50;98.20;;;;;;4317168;33;43887;-82
2021/10/26 05:56:52;;;;;;;;;;;11.50;98.20;;;;;;4316731;33;43850;-83
2021/10/26 05:59:20;;;;;;;;;;;11.50;98.20;;;;;;4317797;33;43880;-83
2021/10/26 06:01:47;;;;;;;;;;;11.50;98.30;;;;;;4317290;33;43837;-81
2021/10/26 06:04:14;;;;;;;;;;;11.50;98.30;;;;;;4332560;33;45771;-83
2021/10/26 06:06:41;;;;;;;;;;;11.50;98.30;;;;;;4319412;33;43058;-82
2021/10/26 06:09:08;;;;;;;;;;;11.50;98.40;;;;;;4319226;33;43894;-83
2021/10/26 06:11:35;;;;;;;;;;;11.50;98.40;;;;;;4331863;33;46122;-83
2021/10/26 06:16:35;;;;;;;;;;;11.50;98.40;;;;;;4332271;33;43254;-83
2021/10/26 06:19:02;;;;;;;;;;;11.40;98.30;;;;;;4332257;33;45797;-82
2021/10/26 06:21:29;;;;;;;;;;;11.40;98.30;;;;;;4331787;33;43747;-84
2021/10/26 06:23:56;;;;;;;;;;;11.50;98.30;;;;;;4331931;33;43668;-84
2021/10/26 06:26:24;;;;;;;;;;;11.50;98.40;;;;;;4331848;33;43045;-83
2021/10/26 06:28:51;;;;;;;;;;;11.40;98.30;;;;;;4319270;33;43854;-82
2021/10/26 06:31:18;;;;;;;;;;;11.50;98.30;;;;;;4331703;33;44087;-83
2021/10/26 06:33:46;;;;;;;;;;;11.50;98.30;;;;;;4331936;33;45200;-82
2021/10/26 06:36:13;;;;;;;;;;;11.50;98.30;;;;;;4331416;33;44045;-83
2021/10/26 06:38:40;;;;;;;;;;;11.50;98.30;;;;;;4331712;33;44012;-83
2021/10/26 06:41:07;;;;;;;;;;;11.50;98.30;;;;;;4318387;33;43927;-83
2021/10/26 06:43:35;;;;;;;;;;;11.50;98.30;;;;;;4331835;33;42846;-83
2021/10/26 06:46:04;;;;;;;;;;;11.50;98.30;;;;;;4319062;33;44000;-81
2021/10/26 06:48:31;;;;;;;;;;;11.50;98.30;;;;;;4331357;33;43435;-82
2021/10/26 06:50:58;;;;;;;;;;;11.50;98.30;;;;;;4318953;33;43747;-82
2021/10/26 06:53:25;;;;;;;;;;;11.50;98.30;;;;;;4331844;33;43467;-82
2021/10/26 06:55:54;;;;;;;;;;;11.50;98.30;;;;;;4331769;33;44211;-82
2021/10/26 06:58:21;;;;;;;;;;;11.50;98.30;;;;;;4331639;33;42747;-82
2021/10/26 07:00:48;;;;;;;;;;;11.50;98.30;;;;;;4331457;33;43893;-83
2021/10/26 07:03:15;;;;;;;;;;;11.50;98.30;;;;;;4331160;33;43480;-83
2021/10/26 07:05:42;;;;;;;;;;;11.50;98.30;;;;;;4331705;33;46006;-82
2021/10/26 07:08:09;;;;;;;;;;;11.50;98.30;;;;;;4318198;33;42633;-82
2021/10/26 07:10:38;;;;;;;;;;;11.50;98.30;;;;;;4331396;33;42654;-83
2021/10/26 07:13:05;;;;;;;;;;;11.50;98.40;;;;;;4318365;33;44117;-82
2021/10/26 07:15:33;;;;;;;;;;;11.50;98.40;;;;;;4331462;33;42892;-82
2021/10/26 07:18:00;;;;;;;;;;;11.50;98.40;;;;;;4317881;33;42331;-82
2021/10/26 07:20:27;;;;;;;;;;;11.50;98.40;;;;;;4330991;33;43840;-81
2021/10/26 07:22:55;;;;;;;;;;;11.50;98.40;;;;;;4318300;33;43822;-82
2021/10/26 07:25:22;;;;;;;;;;;11.50;98.40;;;;;;4318081;33;42868;-83
2021/10/26 07:27:52;;;;;;;;;;;11.50;98.40;;;;;;4331246;33;44183;-82
2021/10/26 07:30:19;;;;;;;;;;;11.50;98.40;;;;;;4331302;33;43780;-82
2021/10/26 07:32:46;;;;;;;;;;;11.50;98.40;;;;;;4317758;33;42264;-82
2021/10/26 07:35:14;;;;;;;;;;;11.50;98.40;;;;;;4330589;33;44558;-82
2021/10/26 07:37:44;;;;;;;;;;;11.50;98.40;;;;;;4330809;33;43270;-82
2021/10/26 07:40:12;;;;;;;;;;;11.50;98.40;;;;;;4331105;33;44262;-81
2021/10/26 07:42:39;;;;;;;;;;;11.50;98.50;;;;;;4331061;33;43193;-81
2021/10/26 07:45:07;;;;;;;;;;;11.50;98.50;;;;;;4331098;33;43407;-81
2021/10/26 07:47:36;;;;;;;;;;;11.50;98.50;;;;;;4330069;33;44216;-82
2021/10/26 07:50:04;;;;;;;;;;;11.50;98.50;;;;;;4317851;33;44223;-82
2021/10/26 07:52:31;;;;;;;;;;;11.50;98.50;;;;;;4317776;33;43430;-82
2021/10/26 07:54:58;;;;;;;;;;;11.50;98.50;;;;;;4330430;33;43035;-81
2021/10/26 07:57:27;;;;;;;;;;;11.50;98.50;;;;;;4330910;33;43129;-82
2021/10/26 07:59:54;;;;;;;;;;;11.50;98.50;;;;;;4330602;33;44339;-82
2021/10/26 08:02:21;;;;;;;;;;;11.50;98.50;;;;;;4330759;33;44313;-80
2021/10/26 08:04:49;;;;;;;;;;;11.60;98.50;;;;;;4330366;33;44913;-81
2021/10/26 08:07:17;;;;;;;;;;;11.60;98.50;;;;;;4330690;33;42674;-82
2021/10/26 08:09:48;;;;;;;;;;;11.60;98.60;;;;;;4330326;33;43791;-81
2021/10/26 08:12:15;;;;;;;;;;;11.60;98.60;;;;;;4317380;33;42949;-81
2021/10/26 08:14:43;;;;;;;;;;;11.60;98.60;;;;;;4317093;33;42555;-82
2021/10/26 08:17:10;;;;;;;;;;;11.60;98.60;;;;;;4330495;33;43753;-81
2021/10/26 08:19:43;;;;;;;;;;;11.60;98.50;;;;;;4330814;33;43174;-81
2021/10/26 08:22:16;;;;;;;;;;;11.60;98.60;;;;;;4330745;33;43559;-81
2021/10/26 08:24:48;;;;;;;;;;;11.70;98.60;;;;;;4330815;33;45489;-81
2021/10/26 08:27:17;;;;;;;;;;;11.70;98.60;;;;;;4317542;33;42779;-82
2021/10/26 08:37:46;;;;;;;;;;;11.70;98.60;;;;;;4330243;33;43869;-81
2021/10/26 08:40:13;;;;;;;;;;;11.80;98.60;;;;;;4317544;33;43880;-81
2021/10/26 08:42:41;;;;;;;;;;;11.80;98.60;;;;;;4330473;33;43171;-81
2021/10/26 08:45:08;;;;;;;;;;;11.80;98.50;;;;;;4317257;33;42710;-82
2021/10/26 08:47:36;;;;;;;;;;;11.80;98.50;;;;;;4330319;33;45704;-81
2021/10/26 08:50:04;;;;;;;;;;;11.80;98.50;;;;;;4330197;33;42671;-81
2021/10/26 08:52:31;;;;;;;;;;;11.80;98.50;;;;;;4317060;33;43247;-80
2021/10/26 08:54:58;;;;;;;;;;;11.80;98.40;;;;;;4329899;33;42868;-81
2021/10/26 08:57:27;;;;;;;;;;;11.90;98.50;;;;;;4329983;33;44332;-81
2021/10/26 08:59:59;;;;;;;;;;;11.90;98.50;;;;;;4319157;33;45208;-81
2021/10/26 09:02:39;;;;;;;;;;;11.80;98.50;;;;;;4333344;33;44319;-81
2021/10/26 09:05:08;;;;;;;;;;;11.90;98.50;;;;;;4333397;33;43008;-80
2021/10/26 09:07:36;;;;;;;;;;;11.90;98.50;;;;;;4319891;33;42875;-81
2021/10/26 09:10:10;;;;;;;;;;;11.90;98.50;;;;;;4319998;33;43709;-81
2021/10/26 09:17:58;;;;;;;;;;;11.80;98.50;;;;;;4333089;33;42675;-80
2021/10/26 09:20:27;;;;;;;;;;;11.90;98.50;;;;;;4332637;33;43905;-80
2021/10/26 09:22:55;;;;;;;;;;;11.90;98.50;;;;;;4333714;33;20316;-80
2021/10/26 09:25:34;;;;;;;;;;;11.90;98.50;;;;;;4333089;33;42985;-81
2021/10/26 09:28:12;;;;;;;;;;;11.90;98.50;;;;;;4332778;33;42890;-81
2021/10/26 09:30:39;;;;;;;;;;;11.90;98.50;;;;;;4332782;33;43018;-80
2021/10/26 09:33:08;;;;;;;;;;;11.90;98.50;;;;;;4332474;33;43292;-81
2021/10/26 09:35:36;;;;;;;;;;;12.00;98.50;;;;;;4332796;33;44199;-80
2021/10/26 09:38:03;;;;;;;;;;;12.00;98.50;;;;;;4319825;33;44860;-81
2021/10/26 09:40:43;;;;;;;;;;;12.00;98.40;;;;;;4319324;33;43681;-81
2021/10/26 09:43:11;;;;;;;;;;;12.00;98.40;;;;;;4332687;33;43011;-82
2021/10/26 09:45:38;;;;;;;;;;;12.00;98.40;;;;;;4332723;33;43700;-81
2021/10/26 09:48:20;;;;;;;;;;;12.00;98.40;;;;;;4332670;33;43406;-82
2021/10/26 09:50:47;;;;;;;;;;;12.00;98.40;;;;;;4319696;33;44228;-80
2021/10/26 09:53:15;;;;;;;;;;;12.00;98.40;;;;;;4332942;33;20069;-80
2021/10/26 09:55:47;;;;;;;;;;;12.00;98.40;;;;;;4332116;33;42939;-81
2021/10/26 09:58:18;;;;;;;;;;;12.00;98.40;;;;;;4319586;33;43176;-81
2021/10/26 10:00:46;;;;;;;;;;;12.00;98.40;;;;;;4319395;33;44170;-81
2021/10/26 10:03:18;;;;;;;;;;;12.00;98.40;;;;;;4318930;33;43528;-81
2021/10/26 10:05:55;;;;;;;;;;;12.00;98.40;;;;;;4332338;33;43482;-82
2021/10/26 10:08:22;;;;;;;;;;;12.00;98.50;;;;;;4331981;33;44063;-81
2021/10/26 10:10:50;;;;;;;;;;;12.10;98.50;;;;;;4318784;33;43053;-82
2021/10/26 10:13:18;;;;;;;;;;;12.10;98.60;;;;;;4319211;33;42835;-80
2021/10/26 10:15:48;;;;;;;;;;;12.10;98.50;;;;;;4318666;33;42373;-80
2021/10/26 10:18:20;;;;;;;;;;;12.10;98.50;;;;;;4332258;33;43633;-81
2021/10/26 10:20:53;;;;;;;;;;;12.20;98.50;;;;;;4332335;33;43568;-80
2021/10/26 10:23:21;;;;;;;;;;;12.20;98.50;;;;;;4333146;33;19994;-81
2021/10/26 10:25:49;;;;;;;;;;;12.20;98.50;;;;;;4331762;33;44075;-80
2021/10/26 10:28:20;;;;;;;;;;;12.20;98.60;;;;;;4331708;33;44187;-81
2021/10/26 10:30:56;;;;;;;;;;;12.20;98.60;;;;;;4332089;33;45437;-81
2021/10/26 10:33:23;;;;;;;;;;;12.20;98.50;;;;;;4332004;33;44011;-81
2021/10/26 10:35:52;;;;;;;;;;;12.30;98.60;;;;;;4331544;33;42915;-80
2021/10/26 10:38:23;;;;;;;;;;;12.40;98.60;;;;;;4331515;33;43590;-81
2021/10/26 10:40:50;;;;;;;;;;;12.40;98.50;;;;;;4318785;33;43845;-82
2021/10/26 10:43:33;;;;;;;;;;;12.40;98.50;;;;;;4331517;33;42968;-80
2021/10/26 10:46:00;;;;;;;;;;;12.40;98.40;;;;;;4318516;33;43650;-81
2021/10/26 10:48:28;;;;;;;;;;;12.50;98.50;;;;;;4331945;33;42933;-80
2021/10/26 10:51:22;;;;;;;;;;;12.50;98.50;;;;;;4331393;33;43203;-80
2021/10/26 10:53:49;;;;;;;;;;;12.60;98.50;;;;;;4329234;33;44978;-80
2021/10/26 10:56:18;;;;;;;;;;;12.60;98.30;;;;;;4331795;33;45037;-82
2021/10/26 10:58:46;;;;;;;;;;;12.60;98.40;;;;;;4331738;33;44207;-81
2021/10/26 11:01:20;;;;;;;;;;;12.60;98.30;;;;;;4318103;33;43304;-80
2021/10/26 11:03:47;;;;;;;;;;;12.70;98.40;;;;;;4331328;33;43068;-81
2021/10/26 11:06:38;;;;;;;;;;;12.70;98.30;;;;;;4331242;33;45671;-80
2021/10/26 11:09:27;;;;;;;;;;;12.70;98.30;;;;;;4331663;33;43889;-81
2021/10/26 11:12:11;;;;;;;;;;;12.70;98.30;;;;;;4318437;33;41468;-80
2021/10/26 11:14:42;;;;;;;;;;;12.80;98.30;;;;;;4317967;33;43613;-82
2021/10/26 11:17:28;;;;;;;;;;;12.80;98.30;;;;;;4331392;33;43848;-80
2021/10/26 11:19:57;;;;;;;;;;;12.80;98.30;;;;;;4331394;33;43525;-80
2021/10/26 11:22:43;;;;;;;;;;;12.80;98.30;;;;;;4330195;33;43655;-80
2021/10/26 11:25:36;;;;;;;;;;;12.90;98.30;;;;;;4331792;33;20071;-80
2021/10/26 11:28:10;;;;;;;;;;;12.90;98.20;;;;;;4315715;33;42680;-80
2021/10/26 11:30:43;;;;;;;;;;;12.90;98.20;;;;;;4330801;33;44251;-81
2021/10/26 11:33:13;;;;;;;;;;;12.90;98.20;;;;;;4331014;33;43640;-80
2021/10/26 11:35:46;;;;;;;;;;;12.90;98.20;;;;;;4317895;33;43825;-81
2021/10/26 11:38:15;;;;;;;;;;;13.00;98.20;;;;;;4331354;33;43305;-80
2021/10/26 11:41:01;;;;;;;;;;;13.00;98.20;;;;;;4317589;33;43215;-81
2021/10/26 11:43:29;;;;;;;;;;;13.10;98.10;;;;;;4318242;33;43295;-80
2021/10/26 11:45:57;;;;;;;;;;;13.10;98.10;;;;;;4318160;33;43736;-81
2021/10/26 11:48:39;;;;;;;;;;;13.10;98.00;;;;;;4331403;33;43456;-80
2021/10/26 11:51:26;;;;;;;;;;;13.20;98.00;;;;;;4331088;33;43888;-80
2021/10/26 11:53:56;;;;;;;;;;;13.20;97.90;;;;;;4330584;33;43558;-82
2021/10/26 11:56:28;;;;;;;;;;;13.30;97.90;;;;;;4331269;33;20006;-81
2021/10/26 11:58:59;;;;;;;;;;;13.30;97.80;;;;;;4317880;33;44294;-80
2021/10/26 12:01:34;;;;;;;;;;;13.30;97.80;;;;;;4331082;33;44189;-80
2021/10/26 12:04:04;;;;;;;;;;;13.40;97.80;;;;;;4317227;33;42101;-81
2021/10/26 12:06:34;;;;;;;;;;;13.40;97.80;;;;;;4330417;33;43860;-81
2021/10/26 12:09:04;;;;;;;;;;;13.40;97.80;;;;;;4330707;33;43343;-80
2021/10/26 12:11:34;;;;;;;;;;;13.50;97.80;;;;;;4317240;33;43035;-81
2021/10/26 12:14:30;;;;;;;;;;;13.50;97.60;;;;;;4330943;33;45056;-81
2021/10/26 12:17:09;;;;;;;;;;;13.60;97.70;;;;;;4305101;33;42656;-80
2021/10/26 12:19:41;;;;;;;;;;;13.60;97.50;;;;;;4330715;33;43181;-81
2021/10/26 12:22:15;;;;;;;;;;;13.50;97.60;;;;;;4330800;33;43437;-80
2021/10/26 12:24:47;;;;;;;;;;;13.60;97.60;;;;;;4330634;33;42626;-81
2021/10/26 12:27:22;;;;;;;;;;;13.60;97.60;;;;;;4317787;33;21186;-80
2021/10/26 12:29:50;;;;;;;;;;;13.60;97.50;;;;;;4317639;33;43028;-81
2021/10/26 12:32:19;;;;;;;;;;;13.50;97.50;;;;;;4330607;33;43855;-81
2021/10/26 12:34:47;;;;;;;;;;;13.50;97.40;;;;;;4329877;33;42983;-82
2021/10/26 12:37:21;;;;;;;;;;;13.60;97.40;;;;;;4317331;33;43047;-81
2021/10/26 12:39:51;;;;;;;;;;;13.60;97.40;;;;;;4330858;33;42873;-81
2021/10/26 12:42:37;;;;;;;;;;;13.50;97.30;;;;;;4317038;33;43962;-81
2021/10/26 12:45:06;;;;;;;;;;;13.60;97.40;;;;;;4330605;33;43215;-82
2021/10/26 12:47:52;;;;;;;;;;;13.50;97.40;;;;;;4330075;33;42821;-80
2021/10/26 12:50:23;;;;;;;;;;;13.50;97.40;;;;;;4316909;33;42466;-81
2021/10/26 12:53:10;;;;;;;;;;;13.60;97.40;;;;;;4330021;33;42846;-82
2021/10/26 12:55:57;;;;;;;;;;;13.50;97.40;;;;;;4330016;33;43961;-81
2021/10/26 12:58:34;;;;;;;;;;;13.50;97.40;;;;;;4317764;33;20270;-81
2021/10/26 13:01:03;;;;;;;;;;;13.50;97.40;;;;;;4330015;33;42688;-82
2021/10/26 13:03:30;;;;;;;;;;;13.60;97.50;;;;;;4329861;33;43482;-81
2021/10/26 13:06:04;;;;;;;;;;;13.60;97.50;;;;;;4329868;33;42460;-81
2021/10/26 13:08:36;;;;;;;;;;;13.60;97.80;;;;;;4329949;33;42067;-81
2021/10/26 13:11:23;;;;;;;;;;;13.60;97.50;;;;;;4317397;33;42343;-82
2021/10/26 13:13:57;;;;;;;;;;;13.70;97.50;;;;;;4330583;33;45925;-81
2021/10/26 13:16:34;;;;;;;;;;;13.70;97.40;;;;;;4317491;33;43175;-81
2021/10/26 13:19:28;;;;;;;;;;;13.80;97.40;;;;;;4317298;33;43471;-82
2021/10/26 13:22:07;;;;;;;;;;;13.80;97.40;;;;;;4327764;33;44023;-83
2021/10/26 13:24:34;;;;;;;;;;;13.80;97.30;;;;;;4316919;33;43608;-82
2021/10/26 13:27:01;;;;;;;;;;;13.90;97.30;;;;;;4329732;33;44025;-82
2021/10/26 13:29:35;;;;;;;;;;;13.90;97.20;;;;;;4330437;33;20453;-82
2021/10/26 13:32:02;;;;;;;;;;;13.90;97.20;;;;;;4317084;33;43184;-82
2021/10/26 13:34:29;;;;;;;;;;;13.90;97.20;;;;;;4329704;33;44187;-81
2021/10/26 13:36:56;;;;;;;;;;;14.00;97.20;;;;;;4329821;33;43037;-81
2021/10/26 13:39:24;;;;;;;;;;;14.00;97.20;;;;;;4316736;33;44208;-82
2021/10/26 13:41:55;;;;;;;;;;;14.00;97.20;;;;;;4330202;33;45484;-82
2021/10/26 13:44:22;;;;;;;;;;;14.00;97.10;;;;;;4330126;33;42859;-81
2021/10/26 13:46:58;;;;;;;;;;;14.00;97.20;;;;;;4318388;33;42470;-82
2021/10/26 13:49:31;;;;;;;;;;;14.00;97.10;;;;;;4319699;33;43145;-83
2021/10/26 13:51:58;;;;;;;;;;;14.10;97.10;;;;;;4319647;33;44333;-84
2021/10/26 13:54:26;;;;;;;;;;;14.00;97.10;;;;;;4332684;33;43741;-82
2021/10/26 13:56:53;;;;;;;;;;;14.00;97.10;;;;;;4332488;33;43121;-82
2021/10/26 13:59:20;;;;;;;;;;;14.00;97.10;;;;;;4332157;33;43256;-82
2021/10/26 14:02:06;;;;;;;;;;;14.00;97.10;;;;;;4332716;33;43878;-82
2021/10/26 14:04:34;;;;;;;;;;;14.10;97.10;;;;;;4319476;33;43021;-81
2021/10/26 14:07:01;;;;;;;;;;;14.00;97.40;;;;;;4332488;33;42905;-82
2021/10/26 14:09:30;;;;;;;;;;;14.10;97.10;;;;;;4332334;33;42762;-82
2021/10/26 14:11:57;;;;;;;;;;;14.10;97.10;;;;;;4332539;33;44249;-84
2021/10/26 14:14:24;;;;;;;;;;;14.10;97.10;;;;;;4318765;33;43485;-83
2021/10/26 14:16:52;;;;;;;;;;;14.10;97.10;;;;;;4331794;33;45789;-84
2021/10/26 14:19:19;;;;;;;;;;;14.20;97.10;;;;;;4332181;33;43585;-82
2021/10/26 14:21:46;;;;;;;;;;;14.20;97.00;;;;;;4319094;33;43490;-83
2021/10/26 14:24:14;;;;;;;;;;;14.20;96.90;;;;;;4332208;33;43762;-81
2021/10/26 14:26:42;;;;;;;;;;;14.20;97.20;;;;;;4331905;33;44096;-82
2021/10/26 14:29:10;;;;;;;;;;;14.20;96.90;;;;;;4331728;33;42385;-83
2021/10/26 14:31:37;;;;;;;;;;;14.20;96.90;;;;;;4318594;33;42833;-82
2021/10/26 14:34:05;;;;;;;;;;;14.20;96.90;;;;;;4332083;33;44256;-83
2021/10/26 14:36:53;;;;;;;;;;;14.20;96.90;;;;;;4331522;33;42846;-82
2021/10/26 14:40:12;;;;;;;;;;;14.20;96.90;;;;;;4318677;33;42611;-82
2021/10/26 14:53:10;;;;;;;;;;;14.30;96.80;;;;;;4331840;33;42766;-83
2021/10/26 14:58:21;;;;;;;;;;;14.30;96.70;;;;;;4331742;33;43483;-85
2021/10/26 15:00:48;;;;;;;;;;;14.30;96.60;;;;;;4331387;33;43713;-83
2021/10/26 15:03:15;;;;;;;;;;;14.30;96.70;;;;;;4316496;33;20010;-84